createdAt,value
2017-06-08T00:00:59.917Z,70.90
2017-06-08T00:03:28.096Z,71.30
2017-06-08T00:05:54.660Z,71.50
2017-06-08T00:08:21.271Z,72.10
2017-06-08T00:10:47.520Z,72.10
2017-06-08T00:13:14.166Z,71.20
2017-06-08T00:15:41.777Z,71.70
2017-06-08T00:18:08.067Z,71.70
2017-06-08T00:20:34.345Z,71.70
2017-06-08T00:23:01.108Z,72.00
2017-06-08T00:25:27.389Z,71.70
2017-06-08T00:27:53.669Z,71.70
2017-06-08T00:30:19.953Z,71.30
2017-06-08T00:32:46.230Z,71.60
2017-06-08T00:35:12.505Z,71.50
2017-06-08T00:37:38.781Z,70.90
2017-06-08T00:40:05.041Z,73.10
2017-06-08T00:42:31.297Z,71.10
2017-06-08T00:44:57.529Z,73.30
2017-06-08T00:47:24.076Z,72.40
2017-06-08T00:49:50.345Z,72.80
2017-06-08T00:52:16.625Z,72.70
2017-06-08T00:54:42.912Z,72.30
2017-06-08T00:57:09.532Z,72.70
2017-06-08T00:59:35.789Z,72.70
2017-06-08T01:02:02.061Z,73.50
2017-06-08T01:04:28.338Z,71.80
2017-06-08T01:06:54.615Z,72.20
2017-06-08T01:09:20.908Z,73.50
2017-06-08T01:11:47.196Z,74.70
2017-06-08T01:14:13.492Z,74.80
2017-06-08T01:16:39.754Z,74.40
2017-06-08T01:19:06.539Z,74.80
2017-06-08T01:21:32.810Z,73.90
2017-06-08T01:23:59.054Z,72.60
2017-06-08T01:26:25.320Z,73.00
2017-06-08T01:28:51.584Z,72.70
2017-06-08T01:31:17.862Z,74.00
2017-06-08T01:33:44.145Z,73.10
2017-06-08T01:36:10.434Z,73.30
2017-06-08T01:38:36.780Z,73.70
2017-06-08T01:41:03.062Z,74.30
2017-06-08T01:43:29.326Z,72.50
2017-06-08T01:45:55.628Z,73.90
2017-06-08T01:48:21.885Z,72.90
2017-06-08T01:50:48.218Z,74.50
2017-06-08T01:53:14.493Z,71.90
2017-06-08T01:55:40.801Z,73.70
2017-06-08T01:58:07.089Z,73.00
2017-06-08T02:00:33.749Z,73.20
2017-06-08T02:03:00.041Z,73.20
2017-06-08T02:05:26.326Z,73.90
2017-06-08T02:07:52.623Z,73.60
2017-06-08T02:10:18.888Z,74.30
2017-06-08T02:12:45.187Z,74.10
2017-06-08T02:15:11.490Z,75.40
2017-06-08T02:17:38.145Z,74.50
2017-06-08T02:20:04.448Z,74.50
2017-06-08T02:22:30.716Z,75.60
2017-06-08T02:24:57.026Z,75.20
2017-06-08T02:27:23.300Z,73.40
2017-06-08T02:29:49.582Z,72.60
2017-06-08T02:32:15.841Z,72.90
2017-06-08T02:34:42.124Z,73.70
2017-06-08T02:37:08.393Z,71.80
2017-06-08T02:39:34.658Z,72.60
2017-06-08T02:42:00.916Z,72.70
2017-06-08T02:44:27.176Z,72.10
2017-06-08T02:46:53.752Z,73.90
2017-06-08T02:49:19.990Z,73.30
2017-06-08T02:51:46.224Z,73.00
2017-06-08T02:54:12.483Z,72.80
2017-06-08T02:56:38.745Z,73.30
2017-06-08T02:59:05.029Z,73.40
2017-06-08T03:01:31.649Z,74.50
2017-06-08T03:03:58.166Z,74.70
2017-06-08T03:06:24.449Z,74.60
2017-06-08T03:08:50.704Z,73.30
2017-06-08T03:11:16.972Z,73.90
2017-06-08T03:13:43.232Z,72.90
2017-06-08T03:16:09.500Z,73.00
2017-06-08T03:18:35.765Z,73.20
2017-06-08T03:21:02.009Z,73.50
2017-06-08T03:23:28.303Z,73.80
2017-06-08T03:25:54.556Z,74.00
2017-06-08T03:28:21.477Z,73.70
2017-06-08T03:30:47.733Z,73.70
2017-06-08T03:33:14.595Z,72.40
2017-06-08T03:35:40.869Z,73.50
2017-06-08T03:38:07.115Z,73.40
2017-06-08T03:40:33.381Z,73.50
2017-06-08T03:42:59.624Z,73.30
2017-06-08T03:45:25.880Z,73.00
2017-06-08T03:47:52.169Z,72.30
2017-06-08T03:50:18.417Z,73.40
2017-06-08T03:52:44.677Z,73.10
2017-06-08T03:55:10.953Z,74.10
2017-06-08T03:57:37.200Z,74.00
2017-06-08T04:00:03.461Z,74.30
2017-06-08T04:02:29.737Z,74.40
2017-06-08T04:04:56.004Z,74.10
2017-06-08T04:07:22.280Z,74.20
2017-06-08T04:09:48.917Z,73.70
2017-06-08T04:12:15.564Z,73.80
2017-06-08T04:14:42.192Z,73.00
2017-06-08T04:17:08.432Z,73.00
2017-06-08T04:19:34.704Z,73.10
2017-06-08T04:22:00.950Z,74.00
2017-06-08T04:24:27.216Z,73.40
2017-06-08T04:26:53.480Z,74.70
2017-06-08T04:29:19.729Z,73.80
2017-06-08T04:31:45.991Z,74.40
2017-06-08T04:34:12.589Z,73.30
2017-06-08T04:36:38.873Z,73.30
2017-06-08T04:39:05.140Z,74.20
2017-06-08T04:41:31.391Z,74.60
2017-06-08T04:43:57.649Z,75.10
2017-06-08T04:46:23.904Z,75.60
2017-06-08T04:48:50.232Z,74.40
2017-06-08T04:51:16.481Z,74.90
2017-06-08T04:53:42.760Z,73.30
2017-06-08T04:56:09.034Z,72.40
2017-06-08T04:58:35.286Z,73.10
2017-06-08T05:01:01.570Z,72.10
2017-06-08T05:03:27.829Z,74.20
2017-06-08T05:05:54.114Z,73.10
2017-06-08T05:08:20.400Z,73.10
2017-06-08T05:10:46.665Z,73.00
2017-06-08T05:13:13.297Z,73.80
2017-06-08T05:15:39.548Z,73.80
2017-06-08T05:18:05.860Z,71.70
2017-06-08T05:20:32.109Z,73.00
2017-06-08T05:22:58.393Z,71.70
2017-06-08T05:25:24.628Z,71.10
2017-06-08T05:27:50.917Z,72.90
2017-06-08T05:30:17.177Z,72.80
2017-06-08T05:32:43.436Z,70.60
2017-06-08T05:35:09.709Z,70.20
2017-06-08T05:37:35.961Z,70.70
2017-06-08T05:40:03.068Z,71.00
2017-06-08T05:42:29.323Z,71.40
2017-06-08T05:44:55.555Z,71.40
2017-06-08T05:47:21.825Z,71.00
2017-06-08T05:49:48.093Z,70.90
2017-06-08T05:52:14.353Z,69.70
2017-06-08T05:54:40.613Z,70.10
2017-06-08T05:57:07.251Z,70.40
2017-06-08T05:59:33.909Z,68.90
2017-06-08T06:02:00.154Z,68.90
2017-06-08T06:04:26.424Z,69.30
2017-06-08T06:06:52.665Z,68.60
2017-06-08T06:09:18.923Z,68.30
2017-06-08T06:11:45.237Z,69.00
2017-06-08T06:14:11.881Z,68.70
2017-06-08T06:16:38.124Z,68.70
2017-06-08T06:19:04.378Z,68.20
2017-06-08T06:21:30.736Z,65.80
2017-06-08T06:23:57.004Z,66.20
2017-06-08T06:26:23.265Z,65.60
2017-06-08T06:28:49.514Z,65.10
2017-06-08T06:31:15.788Z,66.70
2017-06-08T06:33:42.057Z,65.40
2017-06-08T06:36:08.329Z,63.70
2017-06-08T06:38:34.989Z,65.00
2017-06-08T06:41:01.252Z,65.00
2017-06-08T06:43:27.529Z,65.00
2017-06-08T06:45:53.793Z,63.70
2017-06-08T06:48:20.361Z,63.70
2017-06-08T06:50:46.596Z,62.80
2017-06-08T06:53:12.857Z,61.80
2017-06-08T06:55:39.122Z,62.20
2017-06-08T06:58:05.591Z,61.50
2017-06-08T07:00:31.868Z,61.40
2017-06-08T07:02:58.104Z,62.50
2017-06-08T07:05:24.886Z,60.70
2017-06-08T07:07:51.148Z,60.80
2017-06-08T07:10:17.453Z,60.70
2017-06-08T07:12:43.731Z,61.40
2017-06-08T07:15:09.972Z,60.10
2017-06-08T07:17:36.250Z,60.00
2017-06-08T07:20:02.542Z,59.90
2017-06-08T07:22:29.081Z,59.00
2017-06-08T07:24:55.334Z,59.60
2017-06-08T07:27:21.614Z,59.50
2017-06-08T07:29:47.901Z,58.40
2017-06-08T07:32:14.152Z,58.20
2017-06-08T07:34:40.497Z,57.80
2017-06-08T07:37:06.775Z,58.00
2017-06-08T07:39:33.101Z,57.80
2017-06-08T07:41:59.394Z,55.70
2017-06-08T07:44:25.655Z,56.60
2017-06-08T07:46:52.399Z,56.50
2017-06-08T07:49:18.681Z,55.20
2017-06-08T07:51:44.958Z,55.70
2017-06-08T07:54:11.229Z,53.40
2017-06-08T07:56:37.476Z,56.00
2017-06-08T07:59:03.757Z,53.40
2017-06-08T08:01:42.678Z,54.20
2017-06-08T08:04:08.964Z,54.20
2017-06-08T08:06:35.229Z,52.10
2017-06-08T08:09:01.853Z,53.20
2017-06-08T08:11:28.124Z,52.90
2017-06-08T08:13:54.377Z,52.60
2017-06-08T08:16:20.689Z,50.60
2017-06-08T08:18:46.949Z,52.20
2017-06-08T08:21:13.249Z,50.30
2017-06-08T08:23:39.506Z,50.70
2017-06-08T08:26:06.265Z,53.00
2017-06-08T08:28:32.557Z,52.60
2017-06-08T08:30:58.828Z,51.20
2017-06-08T08:33:25.094Z,52.90
2017-06-08T08:35:51.499Z,53.00
2017-06-08T08:38:17.773Z,50.80
2017-06-08T08:40:44.041Z,52.40
2017-06-08T08:43:10.685Z,52.00
2017-06-08T08:45:36.957Z,52.70
2017-06-08T08:48:03.259Z,51.00
2017-06-08T08:50:29.687Z,50.30
2017-06-08T08:52:56.118Z,49.30
2017-06-08T08:55:22.378Z,50.40
2017-06-08T08:57:48.637Z,49.40
2017-06-08T09:00:14.965Z,48.30
2017-06-08T09:02:41.214Z,45.20
2017-06-08T09:05:07.501Z,46.00
2017-06-08T09:07:33.779Z,45.70
2017-06-08T09:10:00.125Z,46.00
2017-06-08T09:12:26.558Z,45.30
2017-06-08T09:14:52.838Z,45.60
2017-06-08T09:17:19.136Z,49.10
2017-06-08T09:19:45.396Z,45.20
2017-06-08T09:22:11.711Z,46.50
2017-06-08T09:24:37.996Z,45.40
2017-06-08T09:27:04.274Z,44.80
2017-06-08T09:29:30.548Z,46.60
2017-06-08T09:31:56.804Z,43.50
2017-06-08T09:34:23.480Z,46.40
2017-06-08T09:36:49.758Z,46.40
2017-06-08T09:39:16.062Z,43.10
2017-06-08T09:41:42.353Z,42.50
2017-06-08T09:44:08.625Z,41.00
2017-06-08T09:46:35.149Z,43.40
2017-06-08T09:49:01.424Z,43.30
2017-06-08T09:51:28.078Z,42.40
2017-06-08T09:53:54.402Z,42.30
2017-06-08T09:56:20.685Z,42.20
2017-06-08T09:58:46.952Z,44.10
2017-06-08T10:01:13.613Z,42.80
2017-06-08T10:03:39.861Z,42.80
2017-06-08T10:06:06.126Z,42.10
2017-06-08T10:08:32.390Z,38.70
2017-06-08T10:10:58.728Z,40.60
2017-06-08T10:13:24.980Z,40.40
2017-06-08T10:15:51.760Z,40.00
2017-06-08T10:18:18.033Z,39.40
2017-06-08T10:20:44.300Z,40.80
2017-06-08T10:23:10.577Z,37.20
2017-06-08T10:25:36.824Z,37.60
2017-06-08T10:28:03.109Z,37.00
2017-06-08T10:30:29.358Z,37.00
2017-06-08T10:32:55.996Z,40.00
2017-06-08T10:35:22.644Z,37.80
2017-06-08T10:37:48.918Z,37.90
2017-06-08T10:40:15.228Z,38.60
2017-06-08T10:42:41.500Z,36.80
2017-06-08T10:45:08.209Z,38.00
2017-06-08T10:47:34.537Z,37.50
2017-06-08T10:50:00.800Z,37.80
2017-06-08T10:52:27.081Z,36.50
2017-06-08T10:54:53.338Z,39.30
2017-06-08T10:57:19.629Z,38.70
2017-06-08T10:59:45.884Z,38.90
2017-06-08T11:02:12.182Z,38.80
2017-06-08T11:04:38.571Z,38.90
2017-06-08T11:07:04.868Z,37.80
2017-06-08T11:09:31.192Z,35.90
2017-06-08T11:11:57.465Z,35.20
2017-06-08T11:14:23.732Z,34.70
2017-06-08T11:16:50.008Z,36.10
2017-06-08T11:19:16.293Z,36.10
2017-06-08T11:21:42.782Z,35.90
2017-06-08T11:24:09.046Z,35.10
2017-06-08T11:26:35.321Z,34.40
2017-06-08T11:29:01.602Z,36.70
2017-06-08T11:31:27.880Z,36.40
2017-06-08T11:33:54.144Z,37.50
2017-06-08T11:36:20.969Z,34.20
2017-06-08T11:38:47.253Z,35.80
2017-06-08T11:41:13.524Z,36.80
2017-06-08T11:43:39.802Z,32.80
2017-06-08T11:46:06.079Z,33.60
2017-06-08T11:48:32.350Z,33.10
2017-06-08T11:50:58.642Z,33.40
2017-06-08T11:53:24.885Z,31.90
2017-06-08T11:55:51.154Z,33.80
2017-06-08T11:58:17.440Z,32.30
2017-06-08T12:00:43.728Z,34.00
2017-06-08T12:03:09.997Z,30.40
2017-06-08T12:05:36.266Z,32.40
2017-06-08T12:08:02.547Z,30.30
2017-06-08T12:10:28.825Z,32.60
2017-06-08T12:12:55.103Z,31.70
2017-06-08T12:15:21.369Z,32.00
2017-06-08T12:17:47.949Z,34.20
2017-06-08T12:20:14.259Z,31.60
2017-06-08T12:22:40.573Z,33.90
2017-06-08T12:25:06.834Z,31.20
2017-06-08T12:27:33.187Z,32.80
2017-06-08T12:29:59.472Z,31.30
2017-06-08T12:32:25.729Z,32.50
2017-06-08T12:34:52.042Z,28.90
2017-06-08T12:37:18.316Z,25.80
2017-06-08T12:39:44.569Z,27.00
2017-06-08T12:42:10.849Z,23.50
2017-06-08T12:44:37.090Z,26.60
2017-06-08T12:47:03.717Z,24.00
2017-06-08T12:49:30.029Z,25.30
2017-06-08T12:51:56.580Z,22.30
2017-06-08T12:54:22.855Z,22.90
2017-06-08T12:56:49.141Z,23.80
2017-06-08T12:59:15.422Z,21.00
2017-06-08T13:01:41.812Z,21.70
2017-06-08T13:04:08.092Z,21.80
2017-06-08T13:06:34.344Z,22.20
2017-06-08T13:09:00.996Z,23.90
2017-06-08T13:11:27.284Z,21.80
2017-06-08T13:13:53.562Z,22.80
2017-06-08T13:16:19.837Z,23.40
2017-06-08T13:18:46.114Z,22.20
2017-06-08T13:21:12.429Z,21.40
2017-06-08T13:23:38.888Z,22.50
2017-06-08T13:26:05.189Z,23.60
2017-06-08T13:28:31.444Z,24.20
2017-06-08T13:30:57.745Z,23.90
2017-06-08T13:33:24.034Z,23.00
2017-06-08T13:35:50.670Z,22.00
2017-06-08T13:38:17.329Z,20.40
2017-06-08T13:40:43.712Z,20.40
2017-06-08T13:43:10.453Z,21.80
2017-06-08T13:45:36.697Z,22.00
2017-06-08T13:48:02.941Z,25.50
2017-06-08T13:50:29.226Z,23.60
2017-06-08T13:52:55.506Z,23.90
2017-06-08T13:55:21.781Z,21.80
2017-06-08T13:57:48.042Z,19.40
2017-06-08T14:00:14.324Z,21.90
2017-06-08T14:02:40.788Z,19.20
2017-06-08T14:05:07.041Z,19.80
2017-06-08T14:07:33.692Z,21.70
2017-06-08T14:10:00.000Z,21.70
2017-06-08T14:12:26.277Z,21.40
2017-06-08T14:14:52.532Z,20.90
2017-06-08T14:17:19.387Z,19.70
2017-06-08T14:19:45.651Z,19.20
2017-06-08T14:22:11.924Z,19.00
2017-06-08T14:24:38.213Z,18.60
2017-06-08T14:27:04.501Z,17.60
2017-06-08T14:29:30.760Z,17.50
2017-06-08T14:31:57.385Z,17.30
2017-06-08T14:34:24.312Z,16.60
2017-06-08T14:36:50.569Z,16.60
2017-06-08T14:39:16.836Z,16.60
2017-06-08T14:41:43.122Z,17.00
2017-06-08T14:44:09.730Z,16.80
2017-06-08T14:46:35.994Z,16.80
2017-06-08T14:49:02.623Z,13.90
2017-06-08T14:51:29.136Z,13.90
2017-06-08T14:53:55.471Z,13.60
2017-06-08T14:56:21.733Z,13.80
2017-06-08T14:58:48.002Z,13.30
2017-06-08T15:01:14.233Z,13.90
2017-06-08T15:03:40.879Z,13.70
2017-06-08T15:06:07.133Z,13.90
2017-06-08T15:08:33.366Z,14.40
2017-06-08T15:10:59.966Z,13.90
2017-06-08T15:13:26.206Z,14.00
2017-06-08T15:15:52.541Z,13.20
2017-06-08T15:18:18.974Z,14.70
2017-06-08T15:20:45.245Z,14.40
2017-06-08T15:23:11.938Z,14.30
2017-06-08T15:25:38.271Z,13.30
2017-06-08T15:28:04.541Z,13.40
2017-06-08T15:30:30.813Z,13.00
2017-06-08T15:32:57.085Z,13.50
2017-06-08T15:35:23.360Z,13.00
2017-06-08T15:37:49.649Z,14.70
2017-06-08T15:40:16.293Z,13.90
2017-06-08T15:42:42.576Z,13.90
2017-06-08T15:45:08.876Z,12.80
2017-06-08T15:47:35.189Z,14.20
2017-06-08T15:50:01.457Z,13.90
2017-06-08T15:52:27.740Z,14.30
2017-06-08T15:54:54.005Z,13.90
2017-06-08T15:57:20.337Z,14.80
2017-06-08T15:59:46.609Z,11.60
2017-06-08T16:02:12.848Z,11.50
2017-06-08T16:04:39.129Z,13.00
2017-06-08T16:07:05.409Z,13.90
2017-06-08T16:09:32.288Z,14.00
2017-06-08T16:11:58.600Z,14.00
2017-06-08T16:14:24.861Z,14.70
2017-06-08T16:16:51.312Z,15.70
2017-06-08T16:19:18.363Z,15.40
2017-06-08T16:21:44.680Z,16.30
2017-06-08T16:24:10.972Z,15.00
2017-06-08T16:26:37.310Z,14.90
2017-06-08T16:29:03.574Z,15.40
2017-06-08T16:31:29.809Z,15.20
2017-06-08T16:33:56.073Z,14.90
2017-06-08T16:36:22.326Z,15.70
2017-06-08T16:38:48.893Z,14.90
2017-06-08T16:41:15.135Z,13.90
2017-06-08T16:43:41.397Z,15.10
2017-06-08T16:46:07.681Z,15.60
2017-06-08T16:48:33.947Z,15.10
2017-06-08T16:51:00.224Z,15.10
2017-06-08T16:53:26.472Z,14.10
2017-06-08T16:55:52.743Z,15.30
2017-06-08T16:58:19.022Z,15.60
2017-06-08T17:00:45.463Z,15.90
2017-06-08T17:03:11.768Z,16.10
2017-06-08T17:05:38.036Z,16.40
2017-06-08T17:08:04.328Z,18.40
2017-06-08T17:10:30.585Z,19.80
2017-06-08T17:12:57.315Z,22.80
2017-06-08T17:15:23.572Z,25.50
2017-06-08T17:17:49.812Z,26.50
2017-06-08T17:20:16.114Z,28.30
2017-06-08T17:22:42.390Z,29.90
2017-06-08T17:25:08.680Z,29.70
2017-06-08T17:27:34.995Z,30.70
2017-06-08T17:30:01.288Z,31.60
2017-06-08T17:32:27.896Z,33.20
2017-06-08T17:34:54.294Z,31.60
2017-06-08T17:37:20.558Z,32.80
2017-06-08T17:39:46.809Z,35.00
2017-06-08T17:42:13.090Z,31.70
2017-06-08T17:44:39.375Z,33.50
2017-06-08T17:47:05.947Z,33.20
2017-06-08T17:49:32.183Z,34.50
2017-06-08T17:51:58.463Z,35.70
2017-06-08T17:54:24.757Z,35.20
2017-06-08T17:56:51.388Z,37.70
2017-06-08T17:59:18.026Z,38.70
2017-06-08T18:01:44.848Z,38.00
2017-06-08T18:04:11.119Z,38.00
2017-06-08T18:06:37.388Z,38.30
2017-06-08T18:09:03.729Z,37.70
2017-06-08T18:11:30.021Z,35.20
2017-06-08T18:13:56.280Z,32.80
2017-06-08T18:16:22.562Z,30.30
2017-06-08T18:18:48.828Z,29.20
2017-06-08T18:21:15.125Z,28.90
2017-06-08T18:23:41.397Z,30.50
2017-06-08T18:26:07.654Z,33.10
2017-06-08T18:28:33.928Z,34.70
2017-06-08T18:31:00.182Z,35.80
2017-06-08T18:33:26.631Z,37.10
2017-06-08T18:35:52.886Z,38.10
2017-06-08T18:38:19.564Z,39.50
2017-06-08T18:40:45.853Z,39.50
2017-06-08T18:43:12.166Z,40.00
2017-06-08T18:45:39.733Z,41.30
2017-06-08T18:48:06.018Z,41.20
2017-06-08T18:50:32.301Z,42.40
2017-06-08T18:52:58.606Z,43.00
2017-06-08T18:55:24.941Z,43.60
2017-06-08T18:57:51.206Z,43.80
2017-06-08T19:00:17.521Z,46.00
2017-06-08T19:02:43.877Z,47.60
2017-06-08T19:05:10.152Z,48.10
2017-06-08T19:07:36.450Z,48.80
2017-06-08T19:10:02.742Z,49.10
2017-06-08T19:12:29.014Z,48.90
2017-06-08T19:14:55.344Z,50.30
2017-06-08T19:17:21.812Z,51.50
2017-06-08T19:19:48.173Z,52.10
2017-06-08T19:22:14.671Z,52.50
2017-06-08T19:24:40.921Z,54.40
2017-06-08T19:27:08.577Z,54.60
2017-06-08T19:29:34.869Z,54.60
2017-06-08T19:32:01.183Z,55.40
2017-06-08T19:34:27.483Z,56.10
2017-06-08T19:36:53.883Z,56.80
2017-06-08T19:39:20.576Z,57.20
2017-06-08T19:41:46.877Z,57.20
2017-06-08T19:44:13.242Z,58.30
2017-06-08T19:46:39.619Z,59.50
2017-06-08T19:49:06.410Z,60.20
2017-06-08T19:51:32.705Z,60.20
2017-06-08T19:53:59.570Z,60.10
2017-06-08T19:56:25.881Z,60.10
2017-06-08T19:58:52.182Z,60.60
2017-06-08T20:01:18.462Z,60.20
2017-06-08T20:03:44.786Z,60.40
2017-06-08T20:06:11.123Z,60.80
2017-06-08T20:08:37.509Z,61.40
2017-06-08T20:11:04.596Z,61.20
2017-06-08T20:13:30.925Z,62.50
2017-06-08T20:15:57.255Z,62.50
2017-06-08T20:18:23.649Z,62.20
2017-06-08T20:20:50.082Z,60.50
2017-06-08T20:23:16.804Z,60.90
2017-06-08T20:25:43.077Z,60.90
2017-06-08T20:28:10.453Z,61.00
2017-06-08T20:30:36.725Z,60.60
2017-06-08T20:35:36.390Z,61.10
2017-06-08T20:38:02.705Z,61.60
2017-06-08T20:40:29.082Z,61.60
2017-06-08T20:42:55.465Z,62.80
2017-06-08T20:45:21.732Z,62.90
2017-06-08T20:47:48.216Z,62.40
2017-06-08T20:50:14.539Z,63.60
2017-06-08T20:52:40.882Z,63.80
2017-06-08T20:55:07.309Z,65.00
2017-06-08T20:57:33.656Z,65.60
2017-06-08T20:59:59.941Z,65.40
2017-06-08T21:02:26.221Z,65.30
2017-06-08T21:04:52.892Z,66.10
2017-06-08T21:07:19.157Z,66.10
2017-06-08T21:09:45.474Z,66.30
2017-06-08T21:12:11.783Z,66.60
2017-06-08T21:14:38.157Z,66.90
2017-06-08T21:17:04.832Z,67.70
2017-06-08T21:19:32.575Z,67.70
2017-06-08T21:21:58.843Z,67.80
2017-06-08T21:24:25.129Z,67.70
2017-06-08T21:26:52.088Z,67.80
2017-06-08T21:29:18.368Z,68.80
2017-06-08T21:31:44.652Z,69.90
2017-06-08T21:34:11.349Z,70.10
2017-06-08T21:36:37.630Z,70.20
2017-06-08T21:39:03.934Z,70.60
2017-06-08T21:41:30.620Z,70.90
2017-06-08T21:43:56.884Z,70.90
2017-06-08T21:46:23.507Z,70.50
2017-06-08T21:48:49.737Z,70.40
2017-06-08T21:51:16.058Z,69.50
2017-06-08T21:53:42.349Z,69.50
2017-06-08T21:56:08.654Z,70.10
2017-06-08T21:58:35.266Z,70.80
2017-06-08T22:01:01.517Z,70.40
2017-06-08T22:03:28.372Z,70.60
2017-06-08T22:05:54.650Z,71.30
2017-06-08T22:08:20.892Z,71.50
2017-06-08T22:10:47.636Z,71.70
2017-06-08T22:13:13.914Z,71.30
2017-06-08T22:15:40.158Z,71.00
2017-06-08T22:18:06.461Z,71.60
2017-06-08T22:20:33.071Z,70.50
2017-06-08T22:22:59.357Z,70.50
2017-06-08T22:25:25.641Z,71.10
2017-06-08T22:27:51.877Z,71.60
2017-06-08T22:30:18.195Z,71.10
2017-06-08T22:32:44.465Z,70.80
2017-06-08T22:35:11.149Z,71.20
2017-06-08T22:37:37.436Z,71.70
2017-06-08T22:40:03.689Z,72.20
2017-06-08T22:42:29.969Z,72.50
2017-06-08T22:44:56.597Z,73.50
2017-06-08T22:47:23.420Z,73.90
2017-06-08T22:49:49.683Z,73.90
2017-06-08T22:52:15.966Z,73.50
2017-06-08T22:54:42.246Z,73.80
2017-06-08T22:57:08.492Z,73.70
2017-06-08T22:59:34.769Z,73.20
2017-06-08T23:02:01.044Z,73.70
2017-06-08T23:04:27.304Z,73.40
2017-06-08T23:06:53.568Z,73.90
2017-06-08T23:09:19.832Z,74.00
2017-06-08T23:11:46.121Z,72.90
2017-06-08T23:14:12.794Z,73.80
2017-06-08T23:16:39.060Z,73.80
2017-06-08T23:19:05.334Z,74.00
2017-06-08T23:21:31.634Z,74.80
2017-06-08T23:23:57.920Z,74.90
2017-06-08T23:26:24.165Z,74.90
2017-06-08T23:28:50.826Z,74.90
2017-06-08T23:31:17.121Z,75.30
2017-06-08T23:33:43.367Z,75.50
2017-06-08T23:36:09.823Z,75.50
2017-06-08T23:38:36.263Z,75.60
2017-06-08T23:41:02.530Z,75.70
2017-06-08T23:43:28.805Z,76.00
2017-06-08T23:45:55.093Z,76.00
2017-06-08T23:48:21.352Z,75.90
2017-06-08T23:50:47.613Z,76.00
2017-06-08T23:53:14.238Z,75.90
2017-06-08T23:55:40.484Z,75.90
2017-06-08T23:58:07.113Z,75.70
